Time;durP1;ratioP1;P1;durP2;ratioP2;P2;SDS_P1;SDS_P2;PMS_P1;PMS_P2;Temp;Humidity;BMP_temperature;BMP_pressure;BME280_temperature;BME280_humidity;BME280_pressure;Samples;Min_cycle;Max_cycle;Signal;HPM_P1;HPM_P2
2021/03/30 00:00:10;;;;;;;9.55;4.00;;;;;;;5.05;68.24;100311.56;5024527;28;20497;-69
2021/03/30 00:02:35;;;;;;;9.77;4.32;;;;;;;4.97;68.96;100320.25;5023726;28;20040;-69
2021/03/30 00:05:01;;;;;;;12.63;4.43;;;;;;;4.84;68.32;100285.56;5012534;28;20109;-70
2021/03/30 00:07:26;;;;;;;9.07;3.47;;;;;;;4.72;68.37;100313.44;5026324;28;20037;-70
2021/03/30 00:09:52;;;;;;;9.85;3.90;;;;;;;4.72;69.56;100316.13;5031544;28;20037;-69
2021/03/30 00:12:17;;;;;;;11.27;4.32;;;;;;;4.75;69.49;100310.50;5031883;28;20375;-70
2021/03/30 00:14:43;;;;;;;10.80;4.13;;;;;;;4.71;69.28;100310.88;5018653;28;20629;-70
2021/03/30 00:17:08;;;;;;;6.95;3.78;;;;;;;4.60;68.80;100307.25;5012172;28;20033;-69
2021/03/30 00:19:33;;;;;;;12.90;3.58;;;;;;;4.51;68.85;100307.19;5019807;28;20025;-69
2021/03/30 00:21:59;;;;;;;9.52;4.00;;;;;;;4.33;69.30;100288.13;5031114;28;20119;-70
2021/03/30 00:24:24;;;;;;;9.32;3.53;;;;;;;4.59;70.28;100308.25;5031504;28;20076;-70
2021/03/30 00:26:49;;;;;;;6.63;3.65;;;;;;;4.58;69.92;100309.25;5030479;28;20018;-69
2021/03/30 00:29:14;;;;;;;12.95;3.78;;;;;;;4.69;70.30;100305.66;5024410;28;20044;-69
2021/03/30 00:31:40;;;;;;;10.18;4.07;;;;;;;4.68;69.62;100297.72;5024682;28;20079;-69
2021/03/30 00:34:05;;;;;;;9.20;4.30;;;;;;;4.62;69.31;100293.75;5030933;28;20112;-70
2021/03/30 00:36:30;;;;;;;9.30;4.05;;;;;;;4.58;69.91;100294.97;5021505;28;20033;-69
2021/03/30 00:38:56;;;;;;;7.72;4.28;;;;;;;4.44;69.88;100296.13;5026192;28;20037;-69
2021/03/30 00:41:21;;;;;;;8.88;4.25;;;;;;;4.49;71.04;100299.28;5023676;28;20029;-70
2021/03/30 00:43:46;;;;;;;7.88;4.30;;;;;;;4.44;70.89;100293.44;5025139;28;20025;-70
2021/03/30 00:46:14;;;;;;;9.88;3.38;;;;;;;4.25;69.84;100283.41;5032099;28;20080;-70
2021/03/30 00:48:41;;;;;;;7.22;3.70;;;;;;;4.26;70.94;100279.72;5031371;28;20026;-70
2021/03/30 00:51:06;;;;;;;9.00;3.45;;;;;;;4.42;70.79;100294.53;5026506;28;20022;-69
2021/03/30 00:53:32;;;;;;;8.18;3.50;;;;;;;4.48;70.52;100289.53;5031547;28;20038;-70
2021/03/30 00:55:57;;;;;;;10.27;3.85;;;;;;;4.60;70.20;100301.06;5017918;28;20033;-70
2021/03/30 00:58:23;;;;;;;8.52;4.13;;;;;;;4.58;70.64;100298.53;5022081;28;20026;-69
2021/03/30 01:00:48;;;;;;;8.65;4.18;;;;;;;4.48;70.41;100297.59;5031130;28;20028;-70
2021/03/30 01:03:13;;;;;;;5.88;3.13;;;;;;;4.28;69.98;100290.34;5031396;28;20029;-70
2021/03/30 01:05:39;;;;;;;11.27;3.50;;;;;;;4.24;70.36;100299.59;5023552;28;20032;-69
2021/03/30 01:08:07;;;;;;;6.28;3.42;;;;;;;4.29;70.36;100292.88;5012641;28;20029;-70
2021/03/30 01:10:54;;;;;;;8.43;3.13;;;;;;;4.13;70.31;100290.59;5019720;28;20029;-70
2021/03/30 01:13:42;;;;;;;8.07;3.58;;;;;;;3.93;70.69;100288.72;5020539;28;20053;-69
2021/03/30 01:16:15;;;;;;;10.68;3.45;;;;;;;3.87;71.94;100297.22;5014499;28;20030;-70
2021/03/30 01:19:01;;;;;;;6.30;3.40;;;;;;;3.97;72.20;100300.03;5029166;28;20409;-69
2021/03/30 01:22:00;;;;;;;10.57;4.22;;;;;;;4.07;71.38;100295.63;5024008;28;20081;-70
2021/03/30 01:24:41;;;;;;;5.78;3.38;;;;;;;4.06;70.71;100297.47;5032269;28;20041;-69
2021/03/30 01:27:36;;;;;;;7.45;3.47;;;;;;;3.85;70.49;100288.47;5025118;28;20096;-70
2021/03/30 01:30:04;;;;;;;9.15;3.80;;;;;;;3.84;71.81;100300.16;5020248;28;20038;-69
2021/03/30 01:32:37;;;;;;;8.75;3.92;;;;;;;3.65;72.78;100293.59;5029612;28;20052;-70
2021/03/30 01:35:09;;;;;;;5.95;3.67;;;;;;;3.58;72.87;100292.38;5023008;28;20454;-69
2021/03/30 01:37:48;;;;;;;7.13;3.85;;;;;;;3.66;72.60;100295.28;5033592;28;20025;-69
2021/03/30 01:40:20;;;;;;;7.90;3.58;;;;;;;3.68;72.25;100289.81;5033335;28;20401;-70
2021/03/30 01:42:48;;;;;;;6.88;3.70;;;;;;;3.58;73.06;100286.19;5032960;28;20060;-70
2021/03/30 01:45:18;;;;;;;12.68;3.95;;;;;;;3.41;72.93;100275.00;5035580;28;20033;-69
2021/03/30 01:47:44;;;;;;;10.55;4.15;;;;;;;3.26;72.58;100293.09;5032747;28;20033;-70
2021/03/30 01:50:11;;;;;;;9.27;3.78;;;;;;;3.13;73.60;100273.63;5032870;28;20438;-70
2021/03/30 01:52:37;;;;;;;7.75;4.13;;;;;;;3.24;74.75;100286.16;5023403;28;20113;-68
2021/03/30 01:55:07;;;;;;;8.02;3.75;;;;;;;3.27;74.24;100267.19;5034014;28;20022;-69
2021/03/30 01:57:34;;;;;;;8.63;3.88;;;;;;;3.39;73.39;100293.00;5033921;28;20033;-69
2021/03/30 02:00:00;;;;;;;8.23;3.67;;;;;;;3.31;73.19;100286.56;5023261;28;20030;-70
2021/03/30 02:02:27;;;;;;;6.85;3.60;;;;;;;3.16;73.02;100277.88;5031441;28;20022;-70
2021/03/30 02:04:53;;;;;;;9.77;4.18;;;;;;;3.18;74.09;100282.16;5034973;28;20064;-70
2021/03/30 02:07:21;;;;;;;11.20;4.20;;;;;;;3.14;74.26;100291.38;5031889;28;20021;-70
2021/03/30 02:09:53;;;;;;;9.20;3.65;;;;;;;3.09;74.33;100288.19;5034069;28;20105;-70
2021/03/30 02:12:20;;;;;;;12.07;3.70;;;;;;;2.91;74.36;100277.13;5069963;22;20462;-71
2021/03/30 02:14:47;;;;;;;8.52;4.55;;;;;;;2.98;74.45;100288.19;5078476;28;20129;-71
2021/03/30 02:17:20;;;;;;;10.07;4.28;;;;;;;2.95;74.42;100286.59;5078734;28;20036;-71
2021/03/30 02:19:52;;;;;;;12.50;4.00;;;;;;;2.87;74.59;100291.69;5074062;28;20028;-71
2021/03/30 02:22:31;;;;;;;9.82;3.35;;;;;;;2.90;75.15;100290.59;5079646;28;20044;-71
2021/03/30 02:24:59;;;;;;;6.43;3.70;;;;;;;2.96;74.61;100285.66;5073762;28;20103;-70
2021/03/30 02:27:27;;;;;;;7.55;3.80;;;;;;;2.91;74.57;100279.81;5070155;28;20052;-70
2021/03/30 02:29:54;;;;;;;6.47;3.47;;;;;;;2.92;74.39;100288.66;5073073;28;20033;-72
2021/03/30 02:32:21;;;;;;;5.88;3.47;;;;;;;2.87;74.37;100285.50;5071641;28;20035;-72
2021/03/30 02:34:48;;;;;;;7.80;3.47;;;;;;;2.83;74.63;100288.41;5073142;28;20024;-72
2021/03/30 02:37:16;;;;;;;10.15;4.05;;;;;;;2.73;74.53;100283.88;5071038;28;20024;-72
2021/03/30 02:39:42;;;;;;;7.80;3.53;;;;;;;2.60;74.46;100283.97;5072526;28;20024;-72
2021/03/30 02:42:09;;;;;;;6.00;3.53;;;;;;;2.45;73.37;100280.63;5070270;28;20056;-71
2021/03/30 02:44:36;;;;;;;9.15;3.35;;;;;;;2.40;75.32;100286.28;5073081;28;20020;-71
2021/03/30 02:47:02;;;;;;;6.38;3.38;;;;;;;2.41;74.94;100269.31;5071792;28;20481;-72
2021/03/30 02:49:29;;;;;;;5.18;2.97;;;;;;;2.40;75.61;100278.28;5067124;28;20044;-73
2021/03/30 02:51:57;;;;;;;6.78;3.90;;;;;;;2.29;75.58;100264.03;5055828;28;20017;-72
2021/03/30 02:54:24;;;;;;;6.13;3.50;;;;;;;2.37;76.57;100296.38;5071872;28;20093;-72
2021/03/30 02:56:50;;;;;;;9.25;4.18;;;;;;;2.20;75.71;100254.88;5063223;28;20104;-72
2021/03/30 02:59:18;;;;;;;8.43;3.63;;;;;;;2.30;75.72;100285.28;5067100;28;20108;-72
2021/03/30 03:01:45;;;;;;;8.10;3.70;;;;;;;2.23;76.41;100281.38;5072294;28;20539;-72
2021/03/30 03:04:11;;;;;;;8.18;3.28;;;;;;;2.40;75.94;100291.63;5071185;28;20052;-72
2021/03/30 03:06:36;;;;;;;4.97;2.88;;;;;;;2.23;75.32;100276.03;5068332;28;20106;-72
2021/03/30 03:09:03;;;;;;;10.30;3.50;;;;;;;2.21;75.00;100269.94;5072869;28;20593;-72
2021/03/30 03:11:29;;;;;;;9.10;3.45;;;;;;;2.13;75.66;100283.84;5059753;28;20486;-72
2021/03/30 03:13:56;;;;;;;9.73;3.72;;;;;;;2.26;76.44;100302.50;5063610;28;20078;-73
2021/03/30 03:16:23;;;;;;;8.77;3.35;;;;;;;2.28;76.38;100305.03;5069666;28;20031;-72
2021/03/30 03:18:50;;;;;;;8.60;3.13;;;;;;;2.15;75.83;100289.09;5071004;28;20025;-72
2021/03/30 03:21:17;;;;;;;11.07;3.63;;;;;;;2.39;76.17;100299.78;5071731;28;20107;-72
2021/03/30 03:23:43;;;;;;;8.48;3.47;;;;;;;2.44;76.25;100305.63;5076755;28;20060;-71
2021/03/30 03:26:12;;;;;;;10.82;3.78;;;;;;;2.58;75.48;100309.94;5059089;28;20390;-68
2021/03/30 03:28:39;;;;;;;8.07;3.63;;;;;;;2.35;75.80;100280.44;5064654;28;20116;-78
2021/03/30 03:31:04;;;;;;;6.63;3.47;;;;;;;2.32;75.70;100299.38;5064959;28;20044;-81
2021/03/30 03:33:30;;;;;;;7.03;3.50;;;;;;;2.24;75.47;100304.44;5064096;28;20029;-79
2021/03/30 03:36:17;;;;;;;7.70;3.63;;;;;;;2.10;75.93;100307.28;5064232;28;20041;-81
2021/03/30 03:38:43;;;;;;;8.68;4.07;;;;;;;2.11;76.56;100312.47;5064556;28;20545;-77
2021/03/30 03:41:17;;;;;;;7.60;3.70;;;;;;;2.07;76.38;100302.13;5067535;28;20028;-78
2021/03/30 03:43:46;;;;;;;10.75;4.65;;;;;;;2.06;76.38;100284.41;5059658;28;20145;-75
2021/03/30 03:46:15;;;;;;;10.68;2.60;;;;;;;2.30;75.78;100305.78;5067021;28;20478;-77
2021/03/30 03:48:41;;;;;;;;;;;;;;;2.51;75.17;100312.19;5061748;28;20493;-74
2021/03/30 03:51:07;;;;;;;6.05;3.20;;;;;;;2.43;75.09;100298.56;5057588;28;19928;-74
2021/03/30 03:53:35;;;;;;;8.32;3.10;;;;;;;2.40;74.99;100299.66;5061368;28;20028;-73
2021/03/30 03:56:02;;;;;;;7.10;3.22;;;;;;;2.39;75.09;100297.09;5064763;28;20021;-69
2021/03/30 03:58:34;;;;;;;7.15;2.97;;;;;;;2.40;75.45;100312.16;5066342;28;20047;-68
2021/03/30 04:01:02;;;;;;;10.45;3.17;;;;;;;2.26;75.75;100310.50;5074553;28;20024;-88
2021/03/30 04:03:32;;;;;;;6.57;3.47;;;;;;;2.05;76.12;100310.28;5089477;28;20028;-78
2021/03/30 04:06:15;;;;;;;10.65;3.20;;;;;;;1.91;76.95;100321.94;5088774;28;20051;-82
2021/03/30 04:08:48;;;;;;;11.32;4.03;;;;;;;1.85;77.40;100311.69;5089644;28;20047;-83
2021/03/30 04:11:15;;;;;;;9.55;3.83;;;;;;;1.80;77.88;100318.34;5092100;28;20035;-71
2021/03/30 04:13:41;;;;;;;7.43;4.18;;;;;;;1.72;78.21;100308.22;5087499;28;20088;-87
2021/03/30 04:16:07;;;;;;;11.60;4.78;;;;;;;1.73;77.90;100301.94;5084200;28;20029;-81
2021/03/30 04:18:34;;;;;;;13.45;4.63;;;;;;;1.49;77.50;100273.38;5077548;28;20031;-80
2021/03/30 04:21:03;;;;;;;8.65;3.90;;;;;;;1.65;77.76;100309.59;5071970;28;20020;-78
2021/03/30 04:23:29;;;;;;;8.02;4.05;;;;;;;1.63;78.08;100308.88;5067789;28;20032;-78
2021/03/30 04:25:55;;;;;;;13.32;4.97;;;;;;;1.59;78.49;100296.72;5067548;28;20079;-78
2021/03/30 04:28:20;;;;;;;8.70;4.43;;;;;;;1.63;78.21;100292.88;5069768;28;20032;-82
2021/03/30 04:30:46;;;;;;;10.90;4.13;;;;;;;1.49;78.38;100269.84;5077014;28;20024;-82
2021/03/30 04:33:11;;;;;;;9.35;4.18;;;;;;;1.72;77.34;100303.72;5078002;28;20028;-85
2021/03/30 04:35:36;;;;;;;9.43;4.43;;;;;;;1.84;77.26;100320.69;5076357;28;20029;-80
2021/03/30 04:38:02;;;;;;;9.88;3.90;;;;;;;1.60;76.86;100311.75;5069999;28;20394;-77
2021/03/30 04:40:27;;;;;;;8.93;4.43;;;;;;;1.70;77.00;100315.47;5062386;28;20031;-74
2021/03/30 04:42:53;;;;;;;8.52;3.97;;;;;;;1.34;76.71;100277.13;5051409;28;20025;-72
2021/03/30 04:45:18;;;;;;;9.15;3.72;;;;;;;1.35;76.33;100309.97;5060216;28;20486;-74
2021/03/30 04:47:43;;;;;;;8.90;3.90;;;;;;;1.35;77.28;100320.63;5060562;28;20033;-74
2021/03/30 04:50:09;;;;;;;12.10;5.65;;;;;;;1.31;77.68;100306.69;5054854;28;20116;-73
2021/03/30 04:52:36;;;;;;;12.60;5.25;;;;;;;1.32;78.11;100321.69;5066043;28;20034;-74
2021/03/30 04:55:03;;;;;;;10.43;4.53;;;;;;;1.39;77.75;100320.31;5058956;28;20109;-82
2021/03/30 04:57:28;;;;;;;7.50;3.78;;;;;;;1.36;77.47;100309.84;5075323;28;20020;-77
2021/03/30 04:59:53;;;;;;;13.52;4.00;;;;;;;1.50;77.02;100328.41;5071482;28;20029;-82
2021/03/30 05:02:18;;;;;;;10.77;3.65;;;;;;;1.42;77.69;100306.78;5069703;28;20397;-77
2021/03/30 05:04:44;;;;;;;7.13;4.03;;;;;;;1.37;77.80;100297.38;5068402;28;20115;-74
2021/03/30 05:07:10;;;;;;;8.95;4.68;;;;;;;1.43;78.08;100308.47;5060798;28;20064;-76
2021/03/30 05:09:36;;;;;;;9.52;4.25;;;;;;;1.50;78.30;100331.06;5071519;28;20029;-78
2021/03/30 05:12:01;;;;;;;10.25;4.18;;;;;;;1.54;77.81;100340.56;5065467;28;20016;-76
2021/03/30 05:14:26;;;;;;;11.40;4.80;;;;;;;1.44;77.88;100334.19;5062931;28;20056;-78
2021/03/30 05:16:52;;;;;;;13.02;4.80;;;;;;;1.35;77.34;100318.81;5068955;28;20068;-75
2021/03/30 05:19:17;;;;;;;8.88;4.53;;;;;;;1.43;77.49;100328.94;5068184;28;20035;-80
2021/03/30 05:21:42;;;;;;;7.22;4.20;;;;;;;1.46;77.01;100324.25;5076196;28;20021;-79
2021/03/30 05:24:08;;;;;;;9.55;4.70;;;;;;;1.68;76.67;100349.44;5065792;28;20053;-76
2021/03/30 05:26:33;;;;;;;6.65;3.83;;;;;;;1.45;75.76;100301.22;5066552;28;20028;-76
2021/03/30 05:29:00;;;;;;;9.50;4.20;;;;;;;1.85;75.94;100342.88;5072129;28;20545;-84
2021/03/30 05:31:25;;;;;;;9.55;3.95;;;;;;;1.89;75.81;100341.72;5071890;28;20063;-75
2021/03/30 05:33:51;;;;;;;10.75;3.90;;;;;;;2.11;75.78;100341.84;5064817;28;20056;-72
2021/03/30 05:36:16;;;;;;;10.90;3.92;;;;;;;2.23;75.65;100337.44;5065625;28;20028;-73
2021/03/30 05:38:41;;;;;;;8.82;3.25;;;;;;;3.38;72.19;100325.19;5068847;28;20059;-75
2021/03/30 05:41:07;;;;;;;7.50;3.75;;;;;;;5.80;65.16;100345.31;5071202;28;20481;-72
2021/03/30 05:43:34;;;;;;;8.80;3.75;;;;;;;7.51;60.17;100327.91;5072963;28;20466;-77
2021/03/30 05:46:00;;;;;;;11.68;4.15;;;;;;;8.61;56.52;100331.66;5065419;28;20077;-78
2021/03/30 05:48:27;;;;;;;6.82;3.80;;;;;;;9.42;53.53;100326.94;5066214;28;20024;-75
2021/03/30 05:50:52;;;;;;;9.25;4.10;;;;;;;10.05;51.66;100311.41;5066887;28;20028;-73
2021/03/30 05:53:19;;;;;;;12.13;3.20;;;;;;;10.40;50.59;100310.41;5065253;28;20123;-74
2021/03/30 05:55:46;;;;;;;8.63;3.55;;;;;;;10.55;49.49;100307.03;5068744;28;20389;-72
2021/03/30 05:58:14;;;;;;;8.95;3.80;;;;;;;10.74;49.53;100321.13;5066945;28;20085;-75
2021/03/30 06:00:44;;;;;;;8.73;3.67;;;;;;;10.98;47.98;100332.97;5065655;28;20126;-72
2021/03/30 06:03:14;;;;;;;8.25;3.45;;;;;;;11.59;47.03;100333.44;5066870;28;20419;-70
2021/03/30 06:05:41;;;;;;;7.03;3.33;;;;;;;12.81;45.45;100323.06;5065848;28;20043;-66
2021/03/30 06:08:07;;;;;;;9.80;3.33;;;;;;;13.02;44.43;100323.28;5066644;28;20036;-73
2021/03/30 06:10:35;;;;;;;7.90;3.47;;;;;;;13.04;44.33;100317.66;5067063;28;20036;-71
2021/03/30 06:13:02;;;;;;;10.35;3.80;;;;;;;14.12;42.78;100327.28;5066493;28;20024;-69
2021/03/30 06:15:30;;;;;;;9.77;3.60;;;;;;;14.51;41.43;100332.38;5067653;28;20554;-71
2021/03/30 06:17:57;;;;;;;11.02;3.63;;;;;;;14.66;40.22;100297.81;5068030;28;20033;-72
2021/03/30 06:20:34;;;;;;;5.82;2.63;;;;;;;14.65;40.85;100328.81;5066974;28;20373;-68
2021/03/30 06:23:05;;;;;;;12.77;3.50;;;;;;;15.46;39.10;100333.16;5066734;28;20024;-71
2021/03/30 06:25:37;;;;;;;6.68;3.75;;;;;;;16.66;37.46;100331.94;5066960;28;20021;-69
2021/03/30 06:28:31;;;;;;;10.55;4.43;;;;;;;17.61;35.82;100321.78;5065688;28;20031;-73
2021/03/30 06:31:03;;;;;;;10.35;4.22;;;;;;;17.88;35.38;100328.06;5064319;28;20131;-70
2021/03/30 06:33:35;;;;;;;13.13;4.50;;;;;;;18.33;34.89;100322.66;5068112;28;20125;-69
2021/03/30 06:36:15;;;;;;;11.07;4.68;;;;;;;18.37;34.08;100312.13;5064713;28;20544;-68
2021/03/30 06:38:54;;;;;;;12.27;5.65;;;;;;;18.63;35.16;100327.59;5066979;28;20059;-76
2021/03/30 06:41:29;;;;;;;11.38;5.70;;;;;;;19.31;33.34;100324.22;5067267;28;20017;-73
2021/03/30 06:47:07;;;;;;;7.93;5.35;;;;;;;18.67;34.24;100306.06;5066699;28;20063;-71
2021/03/30 06:49:37;;;;;;;7.15;3.70;;;;;;;19.17;32.80;100317.16;5066136;28;20482;-71
2021/03/30 06:52:15;;;;;;;10.88;4.60;;;;;;;18.90;33.39;100325.56;5068612;28;20403;-72
2021/03/30 06:54:56;;;;;;;8.73;5.57;;;;;;;18.74;33.00;100320.59;5067046;28;20401;-71
2021/03/30 06:57:41;;;;;;;8.65;4.40;;;;;;;20.01;32.07;100317.66;5064368;28;20025;-72
2021/03/30 07:00:13;;;;;;;6.30;3.53;;;;;;;20.09;31.23;100307.22;5068751;28;20024;-72
2021/03/30 07:02:46;;;;;;;9.52;3.70;;;;;;;20.89;31.41;100313.63;5063594;28;20033;-72
2021/03/30 07:05:23;;;;;;;6.75;3.75;;;;;;;21.87;30.04;100302.03;5060381;28;20024;-72
2021/03/30 07:07:54;;;;;;;7.35;3.83;;;;;;;23.49;27.79;100298.28;5063792;28;20025;-72
2021/03/30 07:10:20;;;;;;;6.25;3.28;;;;;;;23.54;27.42;100307.47;5060997;28;20032;-72
2021/03/30 07:12:48;;;;;;;8.85;3.58;;;;;;;22.97;27.91;100297.41;5064465;28;20021;-72
2021/03/30 07:15:15;;;;;;;10.23;3.40;;;;;;;22.54;29.17;100309.81;5061547;28;20459;-71
2021/03/30 07:17:42;;;;;;;13.25;3.90;;;;;;;22.51;29.09;100310.31;5061203;28;20029;-72
2021/03/30 07:20:09;;;;;;;7.72;3.25;;;;;;;24.48;27.17;100300.28;5064698;28;20500;-64
2021/03/30 07:22:38;;;;;;;10.60;3.33;;;;;;;24.89;26.50;100296.03;5072142;28;20024;-77
2021/03/30 07:25:05;;;;;;;12.90;3.95;;;;;;;25.70;25.91;100300.59;5069855;28;20452;-73
2021/03/30 07:27:38;;;;;;;14.52;3.50;;;;;;;25.29;26.36;100307.78;5057736;28;20112;-72
2021/03/30 07:30:04;;;;;;;14.93;3.28;;;;;;;25.40;26.31;100300.38;5075195;28;20070;-69
2021/03/30 07:32:57;;;;;;;6.70;3.00;;;;;;;25.30;26.22;100306.66;5053899;28;20033;-68
2021/03/30 07:35:23;;;;;;;7.85;3.65;;;;;;;24.85;27.28;100289.31;5054233;28;20021;-71
2021/03/30 07:38:10;;;;;;;7.68;3.30;;;;;;;25.37;26.33;100301.75;5067984;28;20024;-74
2021/03/30 07:40:37;;;;;;;8.73;3.22;;;;;;;25.39;26.82;100305.09;5059389;28;20024;-76
2021/03/30 07:43:05;;;;;;;15.80;3.83;;;;;;;25.87;26.43;100288.53;5065976;28;20087;-74
2021/03/30 07:45:33;;;;;;;11.05;3.45;;;;;;;25.16;26.77;100303.50;5065456;28;20098;-75
2021/03/30 07:47:59;;;;;;;9.32;3.30;;;;;;;26.55;25.81;100294.13;5054334;28;20020;-72
2021/03/30 07:50:59;;;;;;;9.68;3.85;;;;;;;25.85;26.52;100305.44;5070495;28;20024;-70
2021/03/30 07:53:46;;;;;;;7.63;3.30;;;;;;;26.77;25.59;100302.25;5071368;28;20153;-65
2021/03/30 07:56:31;;;;;;;7.63;3.30;;;;;;;25.39;27.20;100305.09;5065909;28;20055;-66
2021/03/30 07:58:58;;;;;;;8.43;3.58;;;;;;;25.02;27.44;100300.31;5063503;28;20049;-76
2021/03/30 08:01:25;;;;;;;10.30;3.83;;;;;;;25.99;26.49;100283.59;5065566;28;20031;-75
2021/03/30 08:03:53;;;;;;;10.82;3.20;;;;;;;24.80;27.96;100296.75;5069328;28;20124;-72
2021/03/30 08:06:26;;;;;;;8.13;3.60;;;;;;;24.83;28.52;100302.56;5071012;28;20028;-71
2021/03/30 08:09:08;;;;;;;15.00;3.53;;;;;;;25.50;27.61;100301.28;5073048;28;20028;-68
2021/03/30 08:11:39;;;;;;;7.50;3.60;;;;;;;26.35;27.64;100300.41;5069232;28;20024;-70
2021/03/30 08:14:08;;;;;;;9.45;3.55;;;;;;;26.82;26.50;100296.69;5067007;28;20180;-71
2021/03/30 08:16:41;;;;;;;15.27;3.70;;;;;;;26.31;27.43;100300.13;5061234;28;20059;-66
2021/03/30 08:19:10;;;;;;;7.93;3.30;;;;;;;27.68;26.16;100301.47;5069178;28;20033;-64
2021/03/30 08:21:54;;;;;;;;;;;;;;;26.42;27.13;100301.81;5072416;28;20029;-73
2021/03/30 08:24:22;;;;;;;9.88;3.13;;;;;;;28.79;25.16;100283.84;5062163;28;19947;-71
2021/03/30 08:26:47;;;;;;;8.30;3.40;;;;;;;27.48;25.85;100276.47;5068482;28;20051;-70
2021/03/30 08:29:23;;;;;;;6.15;2.83;;;;;;;29.13;24.16;100288.63;5059915;28;20387;-69
2021/03/30 08:31:51;;;;;;;14.85;3.08;;;;;;;28.28;24.81;100298.84;5054967;28;20064;-76
2021/03/30 08:34:40;;;;;;;8.85;2.70;;;;;;;29.08;23.90;100295.09;5087434;28;20462;-73
2021/03/30 08:37:10;;;;;;;6.28;3.15;;;;;;;26.52;26.22;100303.00;5067823;28;20044;-69
2021/03/30 08:39:37;;;;;;;6.20;3.30;;;;;;;26.74;26.33;100302.78;5065009;28;20042;-72
2021/03/30 08:42:15;;;;;;;10.50;3.50;;;;;;;28.36;24.64;100294.63;5071492;28;20020;-73
2021/03/30 08:44:56;;;;;;;7.13;3.00;;;;;;;28.40;24.64;100299.34;5066736;28;20056;-72
2021/03/30 08:47:30;;;;;;;8.98;3.00;;;;;;;27.88;24.52;100285.91;5071073;28;20047;-72
2021/03/30 08:50:18;;;;;;;6.03;2.95;;;;;;;28.27;24.61;100291.63;5065587;28;20020;-68
2021/03/30 08:52:44;;;;;;;8.57;3.25;;;;;;;27.22;25.46;100287.63;5059800;28;20097;-71
2021/03/30 08:55:12;;;;;;;7.93;3.00;;;;;;;29.49;24.36;100292.78;5076958;28;20478;-71
2021/03/30 08:57:39;;;;;;;6.13;2.92;;;;;;;29.35;23.52;100280.66;5070821;28;20480;-69
2021/03/30 09:00:11;;;;;;;11.80;3.20;;;;;;;29.13;23.81;100280.28;5065000;28;20051;-69
2021/03/30 09:02:36;;;;;;;12.55;3.03;;;;;;;29.34;23.52;100281.78;5071229;28;20020;-76
2021/03/30 09:05:13;;;;;;;8.82;3.40;;;;;;;28.74;24.35;100275.50;5072943;28;20540;-70
2021/03/30 09:07:47;;;;;;;5.45;3.13;;;;;;;29.91;23.42;100280.13;5064641;28;20393;-74
2021/03/30 09:10:14;;;;;;;10.68;3.22;;;;;;;30.41;23.19;100292.97;5075197;28;20024;-69
2021/03/30 09:12:39;;;;;;;10.90;3.10;;;;;;;29.80;23.78;100286.94;5069126;28;20039;-71
2021/03/30 09:15:08;;;;;;;6.65;3.13;;;;;;;29.53;24.35;100281.91;5075926;28;20382;-67
2021/03/30 09:17:33;;;;;;;;;;;;;;;29.55;23.89;100284.38;5068683;28;20074;-72
2021/03/30 09:20:01;;;;;;;7.82;3.38;;;;;;;30.70;22.65;100278.88;5078777;28;19994;-70
2021/03/30 09:27:30;;;;;;;16.33;3.55;;;;;;;30.42;23.38;100273.13;5088881;28;20024;-74
2021/03/30 09:29:59;;;;;;;6.45;2.80;;;;;;;30.61;23.28;100270.34;5075601;28;20069;-76
2021/03/30 09:32:27;;;;;;;8.25;3.20;;;;;;;30.10;23.51;100270.97;5084319;28;20142;-76
2021/03/30 09:34:53;;;;;;;4.72;2.95;;;;;;;31.81;22.95;100261.38;5078572;28;20028;-79
2021/03/30 09:37:19;;;;;;;7.78;3.60;;;;;;;31.89;22.82;100265.44;5065175;28;20093;-77
2021/03/30 09:39:44;;;;;;;5.97;3.13;;;;;;;31.41;22.96;100260.16;5086000;28;20029;-79
2021/03/30 09:42:11;;;;;;;8.57;3.17;;;;;;;32.03;22.83;100259.88;5084209;28;20020;-75
2021/03/30 09:44:43;;;;;;;8.52;3.28;;;;;;;31.15;23.60;100262.53;5081423;28;20024;-74
2021/03/30 09:47:13;;;;;;;11.85;3.40;;;;;;;31.53;24.06;100256.88;5066138;28;20048;-64
2021/03/30 09:49:42;;;;;;;7.60;3.60;;;;;;;31.18;23.51;100257.19;5064702;28;20370;-63
2021/03/30 09:52:07;;;;;;;7.03;3.08;;;;;;;33.13;22.12;100250.41;5056501;28;20021;-64
2021/03/30 09:54:40;;;;;;;12.85;3.47;;;;;;;33.60;21.89;100250.91;5062133;28;20031;-65
2021/03/30 09:57:37;;;;;;;9.63;3.40;;;;;;;33.93;21.76;100247.72;5055564;28;20522;-65
2021/03/30 10:00:04;;;;;;;9.70;3.33;;;;;;;33.75;21.77;100244.88;5047970;28;20049;-66
2021/03/30 10:02:37;;;;;;;8.00;2.97;;;;;;;33.37;22.50;100255.69;5066858;28;20025;-65
2021/03/30 10:05:06;;;;;;;6.78;3.40;;;;;;;32.79;22.87;100246.16;5074685;28;20031;-66
2021/03/30 10:07:35;;;;;;;6.93;3.40;;;;;;;32.95;23.07;100241.84;5056604;28;20130;-65
2021/03/30 10:10:03;;;;;;;5.28;3.13;;;;;;;33.73;22.46;100235.09;5067707;28;20028;-66
2021/03/30 10:12:32;;;;;;;6.28;2.90;;;;;;;33.48;21.73;100236.59;5057525;28;20391;-65
2021/03/30 10:14:59;;;;;;;7.05;3.00;;;;;;;35.23;21.23;100227.41;5062111;28;20029;-66
2021/03/30 10:17:26;;;;;;;7.50;3.55;;;;;;;34.78;21.28;100213.72;5057735;28;20387;-65
2021/03/30 10:19:53;;;;;;;9.18;3.53;;;;;;;34.34;20.67;100224.91;5053869;28;20115;-65
2021/03/30 10:22:33;;;;;;;5.10;2.67;;;;;;;34.74;21.07;100221.16;5056715;28;20020;-65
2021/03/30 10:25:09;;;;;;;3.90;2.95;;;;;;;33.73;20.89;100213.47;5062204;28;20088;-65
2021/03/30 10:27:35;;;;;;;7.63;3.20;;;;;;;32.87;21.68;100210.94;5059557;28;20025;-64
2021/03/30 10:30:02;;;;;;;8.02;3.20;;;;;;;33.79;21.37;100214.16;5058887;28;20028;-65
2021/03/30 10:32:32;;;;;;;9.65;3.65;;;;;;;33.40;21.93;100201.72;5061941;28;20024;-65
2021/03/30 10:34:57;;;;;;;7.15;2.58;;;;;;;34.48;21.37;100210.72;5069604;28;20035;-65
2021/03/30 10:37:23;;;;;;;6.80;3.08;;;;;;;32.88;21.50;100213.44;5058226;28;20093;-65
2021/03/30 10:39:48;;;;;;;8.80;3.15;;;;;;;33.64;21.25;100211.78;5066127;28;20543;-64
2021/03/30 10:42:18;;;;;;;7.17;2.77;;;;;;;33.33;22.40;100202.19;5060783;28;20028;-65
2021/03/30 10:44:55;;;;;;;11.38;3.30;;;;;;;32.96;22.67;100198.66;5069742;28;20303;-65
2021/03/30 10:47:28;;;;;;;7.93;2.60;;;;;;;32.65;21.71;100195.78;5056152;28;20029;-65
2021/03/30 10:49:54;;;;;;;8.55;3.30;;;;;;;32.98;21.49;100198.31;5057041;28;20051;-65
2021/03/30 10:52:25;;;;;;;7.72;2.78;;;;;;;34.17;21.40;100183.56;5056660;28;20028;-64
2021/03/30 10:54:52;;;;;;;5.88;2.80;;;;;;;34.91;20.83;100185.41;5069548;28;20016;-65
2021/03/30 10:57:24;;;;;;;12.30;2.72;;;;;;;35.72;20.91;100189.38;5058015;28;20036;-65
2021/03/30 10:59:50;;;;;;;6.80;3.13;;;;;;;36.10;19.81;100182.06;5055627;28;20082;-64
2021/03/30 11:02:16;;;;;;;7.43;2.90;;;;;;;36.48;19.62;100181.13;5058539;28;20025;-65
2021/03/30 11:04:42;;;;;;;7.00;2.20;;;;;;;36.77;19.51;100168.97;5060505;28;20445;-65
2021/03/30 11:07:09;;;;;;;4.20;2.45;;;;;;;36.34;19.70;100173.78;5062106;28;20028;-65
2021/03/30 11:09:35;;;;;;;12.93;2.92;;;;;;;35.41;18.26;100177.56;5050510;28;20021;-65
2021/03/30 11:12:01;;;;;;;5.07;2.78;;;;;;;34.64;20.10;100166.94;5057252;28;20418;-65
2021/03/30 11:14:27;;;;;;;5.93;2.30;;;;;;;37.14;18.95;100167.09;5067746;28;20055;-65
2021/03/30 11:16:52;;;;;;;4.45;2.22;;;;;;;36.78;19.43;100162.94;5057711;28;20059;-65
2021/03/30 11:19:18;;;;;;;6.07;2.50;;;;;;;37.05;18.49;100149.47;5054673;28;20068;-64
2021/03/30 11:21:44;;;;;;;6.03;2.38;;;;;;;36.17;19.13;100154.16;5051557;28;20052;-65
2021/03/30 11:24:17;;;;;;;7.93;2.70;;;;;;;36.49;19.23;100151.75;5050691;28;20420;-66
2021/03/30 11:26:46;;;;;;;8.10;2.40;;;;;;;37.34;18.84;100150.44;5064254;28;20024;-65
2021/03/30 11:29:17;;;;;;;4.70;2.17;;;;;;;37.68;18.07;100149.22;5062606;28;20142;-66
2021/03/30 11:32:12;;;;;;;5.50;2.28;;;;;;;37.56;17.57;100147.19;5065399;28;20040;-65
2021/03/30 11:39:47;;;;;;;6.55;2.10;;;;;;;36.63;18.74;100136.25;5061377;28;20105;-65
2021/03/30 11:42:12;;;;;;;4.47;2.63;;;;;;;37.49;17.29;100132.78;5066826;28;20017;-64
2021/03/30 11:44:38;;;;;;;11.35;2.25;;;;;;;37.77;17.36;100135.78;5068587;28;20045;-63
2021/03/30 11:47:03;;;;;;;4.40;1.92;;;;;;;35.30;17.81;100132.06;5066757;28;20052;-64
2021/03/30 11:49:31;;;;;;;4.90;2.25;;;;;;;37.48;17.71;100122.69;5061430;28;20060;-64
2021/03/30 11:51:57;;;;;;;;;;;;;;;37.48;17.19;100133.97;5061869;28;20534;-63